Terminal Aerodrome Forecast
Issued by NWS Atlanta, GA

Home | Current Version | Previous Version | Text Only | Print | Product List | Glossary On
Versions: 1 2 3 4 5 6 7 8 9 10 11 12 13 14 15 16 17 18 19 20 21 22 23 24 25 26 27 28 29 30 31
032
FTAK31 PAJN 280716 AAA
TAFAHN
TAF AMD
PAHN 280716Z 2807/2906 08012G20KT 5SM -RA BR OVC015
      TEMPO 2807/2811 2SM RA BR OVC010
     FM281200 12010G18KT 6SM -RA BR SCT015 OVC025
     FM282000 12010G18KT P6SM -SHRA SCT020 OVC035
      AMD LTD TO CLD VIS AND WIND=

USA.gov is the U.S. government's official web portal to all federal, state and local government web resources and services.